EJU37PZ LPPR-EGGD
Flight info
| Callsign | EJU37PZ |
|---|---|
| Flight time | 1h 35m |
| Altitude | 38000 |
| Route | N0441F380 DCT TURON P600 ASDEB DCT KORUL DCT KOLEK DCT EBOMO DCT RUSIB DCT NOZHU DCT SHIRI DCT TOJAQ |
| Aircraft | A320/M-SDE3FGHIRWY/LB1 |
Departure
| Time | 2026-05-07 17:21 |
|---|---|
| Airport | Francisco de Sá Carneiro Airport (LPPR) |
Arrival
| Time | 2026-05-07 18:56 |
|---|---|
| Airport | Bristol Airport (EGGD) |
| Time | Latitude | Longitude | Altitude | Speed | Heading |
|---|---|---|---|---|---|
| 2026-05-07 17:00 | 41.24023 | -8.67635 | 234 ft | 0 kts | 259° |
| 2026-05-07 17:13 | 41.24023 | -8.67634 | 234 ft | 2 kts | 259° |
| 2026-05-07 17:13 | 41.24028 | -8.67602 | 235 ft | 4 kts | 254° |
| 2026-05-07 17:13 | 41.24037 | -8.67568 | 240 ft | 4 kts | 242° |
| 2026-05-07 17:14 | 41.24052 | -8.67542 | 237 ft | 4 kts | 202° |
| 2026-05-07 17:14 | 41.24063 | -8.67538 | 238 ft | 0 kts | 169° |
| 2026-05-07 17:16 | 41.24027 | -8.67528 | 238 ft | 12 kts | 169° |
| 2026-05-07 17:17 | 41.23945 | -8.67542 | 236 ft | 13 kts | 219° |
| 2026-05-07 17:17 | 41.23914 | -8.67664 | 230 ft | 12 kts | 258° |
| 2026-05-07 17:17 | 41.23900 | -8.67757 | 224 ft | 3 kts | 258° |
| 2026-05-07 17:17 | 41.23900 | -8.67759 | 224 ft | 0 kts | 258° |
| 2026-05-07 17:19 | 41.23899 | -8.67765 | 223 ft | 3 kts | 258° |
| 2026-05-07 17:19 | 41.23889 | -8.67830 | 223 ft | 9 kts | 258° |
| 2026-05-07 17:19 | 41.23916 | -8.67890 | 222 ft | 9 kts | 345° |
| 2026-05-07 17:20 | 41.23919 | -8.67891 | 222 ft | 0 kts | 346° |
| 2026-05-07 17:20 | 41.23950 | -8.67900 | 221 ft | 22 kts | 348° |
| 2026-05-07 17:21 | 41.24368 | -8.68011 | 211 ft | 97 kts | 348° |
| 2026-05-07 17:21 | 41.25230 | -8.68237 | 190 ft | 153 kts | 346° |
| 2026-05-07 17:21 | 41.26279 | -8.68524 | 748 ft | 154 kts | 347° |
| 2026-05-07 17:21 | 41.27332 | -8.68798 | 1429 ft | 155 kts | 343° |
| 2026-05-07 17:22 | 41.28444 | -8.69090 | 1804 ft | 173 kts | 345° |
| 2026-05-07 17:22 | 41.29687 | -8.69422 | 2094 ft | 197 kts | 346° |
| 2026-05-07 17:22 | 41.31114 | -8.69802 | 2416 ft | 221 kts | 345° |
| 2026-05-07 17:22 | 41.32701 | -8.70222 | 2777 ft | 245 kts | 346° |
| 2026-05-07 17:23 | 41.34438 | -8.70657 | 3371 ft | 260 kts | 350° |
| 2026-05-07 17:23 | 41.36282 | -8.70540 | 4128 ft | 271 kts | 6° |
| 2026-05-07 17:23 | 41.38173 | -8.70181 | 4936 ft | 278 kts | 6° |
| 2026-05-07 17:23 | 41.40110 | -8.69796 | 5688 ft | 285 kts | 7° |
| 2026-05-07 17:24 | 41.42094 | -8.69399 | 6437 ft | 292 kts | 8° |
| 2026-05-07 17:24 | 41.44116 | -8.68991 | 7181 ft | 297 kts | 8° |
| 2026-05-07 17:24 | 41.46167 | -8.68572 | 7976 ft | 300 kts | 8° |
| 2026-05-07 17:24 | 41.48243 | -8.68150 | 8768 ft | 303 kts | 8° |
| 2026-05-07 17:25 | 41.50341 | -8.67726 | 9563 ft | 307 kts | 9° |
| 2026-05-07 17:25 | 41.52469 | -8.67295 | 10244 ft | 314 kts | 8° |
| 2026-05-07 17:25 | 41.54708 | -8.66846 | 10457 ft | 337 kts | 8° |
| 2026-05-07 17:25 | 41.57090 | -8.66369 | 10867 ft | 351 kts | 8° |
| 2026-05-07 17:26 | 41.59523 | -8.65880 | 11550 ft | 356 kts | 8° |
| 2026-05-07 17:26 | 41.61979 | -8.65389 | 12298 ft | 358 kts | 8° |
| 2026-05-07 17:26 | 41.64455 | -8.64893 | 13003 ft | 362 kts | 9° |
| 2026-05-07 17:26 | 41.66951 | -8.64390 | 13728 ft | 364 kts | 9° |
| 2026-05-07 17:27 | 41.69469 | -8.63868 | 14348 ft | 367 kts | 12° |
| 2026-05-07 17:27 | 41.71910 | -8.62824 | 14966 ft | 369 kts | 21° |
| 2026-05-07 17:27 | 41.74320 | -8.61585 | 15571 ft | 373 kts | 21° |
| 2026-05-07 17:27 | 41.76746 | -8.60329 | 16185 ft | 375 kts | 21° |
| 2026-05-07 17:28 | 41.79192 | -8.59056 | 16789 ft | 378 kts | 21° |
| 2026-05-07 17:28 | 41.81656 | -8.57768 | 17393 ft | 381 kts | 21° |
| 2026-05-07 17:28 | 41.84106 | -8.56491 | 18002 ft | 384 kts | 22° |
| 2026-05-07 17:28 | 41.86644 | -8.55159 | 18514 ft | 388 kts | 22° |
| 2026-05-07 17:29 | 41.89094 | -8.53744 | 19041 ft | 390 kts | 24° |
| 2026-05-07 17:29 | 41.91567 | -8.52191 | 19531 ft | 394 kts | 25° |
| 2026-05-07 17:29 | 41.94033 | -8.50572 | 20086 ft | 396 kts | 26° |
| 2026-05-07 17:29 | 41.96510 | -8.48930 | 20592 ft | 398 kts | 25° |
| 2026-05-07 17:30 | 41.99004 | -8.47287 | 21134 ft | 400 kts | 25° |
| 2026-05-07 17:30 | 42.01519 | -8.45650 | 21647 ft | 403 kts | 24° |
| 2026-05-07 17:30 | 42.04057 | -8.44017 | 22194 ft | 405 kts | 24° |
| 2026-05-07 17:30 | 42.06611 | -8.42389 | 22701 ft | 408 kts | 24° |
| 2026-05-07 17:31 | 42.09182 | -8.40753 | 23207 ft | 410 kts | 24° |
| 2026-05-07 17:31 | 42.11768 | -8.39109 | 23683 ft | 412 kts | 23° |
| 2026-05-07 17:31 | 42.14366 | -8.37455 | 24083 ft | 414 kts | 23° |
| 2026-05-07 17:31 | 42.16975 | -8.35783 | 24471 ft | 417 kts | 23° |
| 2026-05-07 17:32 | 42.19597 | -8.34095 | 24843 ft | 419 kts | 23° |
| 2026-05-07 17:32 | 42.22229 | -8.32399 | 25261 ft | 420 kts | 22° |
| 2026-05-07 17:32 | 42.24870 | -8.30695 | 25631 ft | 422 kts | 22° |
| 2026-05-07 17:32 | 42.27530 | -8.28978 | 25979 ft | 424 kts | 22° |
| 2026-05-07 17:33 | 42.30201 | -8.27256 | 26309 ft | 427 kts | 22° |
| 2026-05-07 17:33 | 42.32893 | -8.25523 | 26661 ft | 429 kts | 22° |
| 2026-05-07 17:33 | 42.35599 | -8.23782 | 26988 ft | 432 kts | 22° |
| 2026-05-07 17:33 | 42.38318 | -8.22030 | 27329 ft | 434 kts | 22° |
| 2026-05-07 17:34 | 42.41055 | -8.20262 | 27653 ft | 436 kts | 21° |
| 2026-05-07 17:34 | 42.43801 | -8.18485 | 27976 ft | 439 kts | 21° |
| 2026-05-07 17:34 | 42.46562 | -8.16695 | 28289 ft | 441 kts | 21° |
| 2026-05-07 17:34 | 42.49337 | -8.14896 | 28584 ft | 444 kts | 21° |
| 2026-05-07 17:35 | 42.52125 | -8.13082 | 28884 ft | 446 kts | 21° |
| 2026-05-07 17:35 | 42.54930 | -8.11259 | 29174 ft | 448 kts | 21° |
| 2026-05-07 17:35 | 42.57749 | -8.09428 | 29459 ft | 450 kts | 21° |
| 2026-05-07 17:35 | 42.60579 | -8.07589 | 29739 ft | 452 kts | 21° |
| 2026-05-07 17:36 | 42.63418 | -8.05739 | 30002 ft | 454 kts | 21° |
| 2026-05-07 17:36 | 42.66271 | -8.03873 | 30209 ft | 456 kts | 21° |
| 2026-05-07 17:36 | 42.69138 | -8.01999 | 30429 ft | 458 kts | 21° |
| 2026-05-07 17:36 | 42.72014 | -8.00120 | 30628 ft | 460 kts | 21° |
| 2026-05-07 17:37 | 42.74905 | -7.98226 | 30871 ft | 461 kts | 21° |
| 2026-05-07 17:37 | 42.77785 | -7.96337 | 31231 ft | 459 kts | 20° |
| 2026-05-07 17:37 | 42.80659 | -7.94452 | 31572 ft | 457 kts | 20° |
| 2026-05-07 17:37 | 42.83516 | -7.92573 | 31873 ft | 457 kts | 20° |
| 2026-05-07 17:38 | 42.86376 | -7.90687 | 32165 ft | 456 kts | 20° |
| 2026-05-07 17:38 | 42.89232 | -7.88803 | 32455 ft | 456 kts | 20° |
| 2026-05-07 17:38 | 42.92086 | -7.86923 | 32749 ft | 456 kts | 20° |
| 2026-05-07 17:38 | 42.94939 | -7.85047 | 33035 ft | 455 kts | 20° |
| 2026-05-07 17:39 | 42.97796 | -7.83168 | 33331 ft | 455 kts | 20° |
| 2026-05-07 17:39 | 43.00642 | -7.81294 | 33623 ft | 454 kts | 20° |
| 2026-05-07 17:39 | 43.03483 | -7.79415 | 33912 ft | 454 kts | 20° |
| 2026-05-07 17:39 | 43.06323 | -7.77530 | 34152 ft | 454 kts | 20° |
| 2026-05-07 17:40 | 43.09163 | -7.75643 | 34374 ft | 454 kts | 20° |
| 2026-05-07 17:40 | 43.12001 | -7.73757 | 34594 ft | 454 kts | 20° |
| 2026-05-07 17:40 | 43.14844 | -7.71867 | 34813 ft | 454 kts | 20° |
| 2026-05-07 17:40 | 43.17684 | -7.69978 | 35029 ft | 454 kts | 20° |
| 2026-05-07 17:41 | 43.20523 | -7.68086 | 35233 ft | 454 kts | 20° |
| 2026-05-07 17:41 | 43.23360 | -7.66198 | 35422 ft | 454 kts | 20° |
| 2026-05-07 17:41 | 43.26203 | -7.64306 | 35603 ft | 454 kts | 20° |
| 2026-05-07 17:41 | 43.29046 | -7.62409 | 35786 ft | 454 kts | 20° |
| 2026-05-07 17:42 | 43.31887 | -7.60510 | 35972 ft | 454 kts | 20° |
| 2026-05-07 17:42 | 43.34728 | -7.58606 | 36193 ft | 453 kts | 20° |
| 2026-05-07 17:42 | 43.37560 | -7.56705 | 36405 ft | 452 kts | 20° |
| 2026-05-07 17:42 | 43.40385 | -7.54805 | 36604 ft | 452 kts | 20° |
| 2026-05-07 17:43 | 43.43209 | -7.52908 | 36768 ft | 452 kts | 21° |
| 2026-05-07 17:43 | 43.46028 | -7.51013 | 36927 ft | 452 kts | 20° |
| 2026-05-07 17:43 | 43.48854 | -7.49112 | 37082 ft | 452 kts | 21° |
| 2026-05-07 17:43 | 43.51679 | -7.47213 | 37235 ft | 452 kts | 20° |
| 2026-05-07 17:44 | 43.54506 | -7.45310 | 37374 ft | 452 kts | 21° |
| 2026-05-07 17:44 | 43.57329 | -7.43406 | 37515 ft | 452 kts | 21° |
| 2026-05-07 17:44 | 43.60154 | -7.41500 | 37675 ft | 452 kts | 21° |
| 2026-05-07 17:44 | 43.62977 | -7.39592 | 37852 ft | 452 kts | 21° |
| 2026-05-07 17:45 | 43.68621 | -7.35776 | 37893 ft | 451 kts | 21° |
| 2026-05-07 17:45 | 43.74253 | -7.31950 | 37892 ft | 451 kts | 21° |
| 2026-05-07 17:46 | 43.79849 | -7.28142 | 37909 ft | 451 kts | 21° |
| 2026-05-07 17:46 | 43.85481 | -7.24302 | 37898 ft | 451 kts | 21° |
| 2026-05-07 17:47 | 43.91106 | -7.20458 | 37908 ft | 450 kts | 22° |
| 2026-05-07 17:47 | 43.96723 | -7.16617 | 37924 ft | 450 kts | 22° |
| 2026-05-07 17:48 | 44.02329 | -7.12776 | 37935 ft | 449 kts | 22° |
| 2026-05-07 17:48 | 44.07930 | -7.08934 | 37927 ft | 449 kts | 22° |
| 2026-05-07 17:49 | 44.13522 | -7.05083 | 37925 ft | 448 kts | 22° |
| 2026-05-07 17:49 | 44.19105 | -7.01231 | 37925 ft | 448 kts | 22° |
| 2026-05-07 17:50 | 44.24689 | -6.97369 | 37934 ft | 448 kts | 22° |
| 2026-05-07 17:50 | 44.30266 | -6.93493 | 37931 ft | 448 kts | 22° |
| 2026-05-07 17:51 | 44.35880 | -6.89743 | 37933 ft | 446 kts | 20° |
| 2026-05-07 17:51 | 44.41578 | -6.86315 | 37947 ft | 446 kts | 19° |
| 2026-05-07 17:52 | 44.47289 | -6.82937 | 37947 ft | 446 kts | 19° |
| 2026-05-07 17:52 | 44.52984 | -6.79479 | 37942 ft | 446 kts | 20° |
| 2026-05-07 17:53 | 44.58663 | -6.75978 | 37945 ft | 446 kts | 20° |
| 2026-05-07 17:53 | 44.64341 | -6.72468 | 37942 ft | 446 kts | 20° |
| 2026-05-07 17:54 | 44.70024 | -6.68963 | 37943 ft | 446 kts | 20° |
| 2026-05-07 17:54 | 44.75702 | -6.65451 | 37940 ft | 446 kts | 20° |
| 2026-05-07 17:55 | 44.81378 | -6.61925 | 37956 ft | 446 kts | 20° |
| 2026-05-07 17:55 | 44.87054 | -6.58404 | 37949 ft | 446 kts | 20° |
| 2026-05-07 17:56 | 44.92734 | -6.54880 | 37948 ft | 446 kts | 20° |
| 2026-05-07 17:56 | 44.98408 | -6.51347 | 37948 ft | 446 kts | 20° |
| 2026-05-07 17:57 | 45.03126 | -6.48398 | 37959 ft | 446 kts | 20° |
| 2026-05-07 17:57 | 45.09728 | -6.44262 | 37949 ft | 447 kts | 20° |
| 2026-05-07 17:58 | 45.15414 | -6.40693 | 37945 ft | 447 kts | 20° |
| 2026-05-07 17:58 | 45.21098 | -6.37102 | 37964 ft | 447 kts | 21° |
| 2026-05-07 17:59 | 45.26793 | -6.33522 | 37943 ft | 448 kts | 20° |
| 2026-05-07 17:59 | 45.32499 | -6.29934 | 37945 ft | 449 kts | 21° |
| 2026-05-07 18:00 | 45.38202 | -6.26325 | 37950 ft | 449 kts | 21° |
| 2026-05-07 18:00 | 45.43909 | -6.22687 | 37960 ft | 449 kts | 21° |
| 2026-05-07 18:01 | 45.49623 | -6.19048 | 37954 ft | 450 kts | 21° |
| 2026-05-07 18:01 | 45.55347 | -6.15401 | 37949 ft | 451 kts | 21° |
| 2026-05-07 18:02 | 45.63949 | -6.09912 | 37960 ft | 452 kts | 21° |
| 2026-05-07 18:03 | 45.68755 | -6.06823 | 37960 ft | 452 kts | 21° |
| 2026-05-07 18:03 | 45.74458 | -6.03152 | 37961 ft | 452 kts | 21° |
| 2026-05-07 18:04 | 45.80198 | -5.99456 | 37963 ft | 453 kts | 21° |
| 2026-05-07 18:04 | 45.85947 | -5.95756 | 37977 ft | 453 kts | 21° |
| 2026-05-07 18:05 | 45.91706 | -5.92042 | 37978 ft | 453 kts | 21° |
| 2026-05-07 18:05 | 45.97446 | -5.88321 | 37978 ft | 453 kts | 22° |
| 2026-05-07 18:06 | 46.03184 | -5.84585 | 37987 ft | 453 kts | 22° |
| 2026-05-07 18:06 | 46.08874 | -5.80884 | 37980 ft | 453 kts | 21° |
| 2026-05-07 18:07 | 46.14620 | -5.77146 | 37982 ft | 453 kts | 22° |
| 2026-05-07 18:07 | 46.20356 | -5.73395 | 37978 ft | 453 kts | 22° |
| 2026-05-07 18:08 | 46.26096 | -5.69628 | 37985 ft | 453 kts | 22° |
| 2026-05-07 18:08 | 46.31796 | -5.65873 | 37984 ft | 453 kts | 22° |
| 2026-05-07 18:09 | 46.37533 | -5.62094 | 37987 ft | 453 kts | 22° |
| 2026-05-07 18:09 | 46.43272 | -5.58310 | 37994 ft | 453 kts | 22° |
| 2026-05-07 18:10 | 46.49008 | -5.54509 | 37993 ft | 453 kts | 22° |
| 2026-05-07 18:10 | 46.54740 | -5.50709 | 37992 ft | 453 kts | 22° |
| 2026-05-07 18:11 | 46.60483 | -5.46905 | 37993 ft | 453 kts | 22° |
| 2026-05-07 18:11 | 46.66221 | -5.43081 | 37992 ft | 453 kts | 22° |
| 2026-05-07 18:12 | 46.71956 | -5.39242 | 37996 ft | 454 kts | 22° |
| 2026-05-07 18:12 | 46.77686 | -5.35393 | 37994 ft | 454 kts | 22° |
| 2026-05-07 18:13 | 46.83420 | -5.31541 | 37990 ft | 453 kts | 22° |
| 2026-05-07 18:13 | 46.89151 | -5.27696 | 37996 ft | 453 kts | 22° |
| 2026-05-07 18:14 | 46.94882 | -5.23846 | 37997 ft | 453 kts | 22° |
| 2026-05-07 18:14 | 47.00605 | -5.19970 | 37996 ft | 453 kts | 22° |
| 2026-05-07 18:15 | 47.06333 | -5.16077 | 37997 ft | 454 kts | 22° |
| 2026-05-07 18:15 | 47.12065 | -5.12184 | 38005 ft | 454 kts | 22° |
| 2026-05-07 18:16 | 47.17798 | -5.08288 | 38004 ft | 454 kts | 22° |
| 2026-05-07 18:16 | 47.23532 | -5.04379 | 38001 ft | 454 kts | 22° |
| 2026-05-07 18:17 | 47.29263 | -5.00455 | 38010 ft | 455 kts | 22° |
| 2026-05-07 18:17 | 47.35003 | -4.96523 | 38008 ft | 455 kts | 23° |
| 2026-05-07 18:18 | 47.40747 | -4.92576 | 38003 ft | 456 kts | 23° |
| 2026-05-07 18:18 | 47.46458 | -4.88638 | 38003 ft | 456 kts | 23° |
| 2026-05-07 18:19 | 47.52213 | -4.84667 | 38014 ft | 456 kts | 23° |
| 2026-05-07 18:19 | 47.57964 | -4.80691 | 38010 ft | 457 kts | 23° |
| 2026-05-07 18:20 | 47.63724 | -4.76699 | 38008 ft | 457 kts | 23° |
| 2026-05-07 18:20 | 47.69478 | -4.72693 | 38007 ft | 457 kts | 23° |
| 2026-05-07 18:21 | 47.75235 | -4.68683 | 38014 ft | 457 kts | 23° |
| 2026-05-07 18:21 | 47.80993 | -4.64653 | 38011 ft | 458 kts | 23° |
| 2026-05-07 18:22 | 47.86757 | -4.60617 | 38012 ft | 458 kts | 23° |
| 2026-05-07 18:22 | 47.92514 | -4.56576 | 38026 ft | 458 kts | 23° |
| 2026-05-07 18:23 | 47.98272 | -4.52518 | 38014 ft | 458 kts | 23° |
| 2026-05-07 18:23 | 48.04038 | -4.48444 | 38012 ft | 458 kts | 23° |
| 2026-05-07 18:24 | 48.09806 | -4.44365 | 38012 ft | 458 kts | 23° |
| 2026-05-07 18:24 | 48.15570 | -4.40280 | 38025 ft | 459 kts | 23° |
| 2026-05-07 18:25 | 48.21336 | -4.36175 | 38017 ft | 459 kts | 23° |
| 2026-05-07 18:25 | 48.27059 | -4.32088 | 38013 ft | 459 kts | 23° |
| 2026-05-07 18:26 | 48.32821 | -4.27965 | 38002 ft | 459 kts | 23° |
| 2026-05-07 18:26 | 48.38592 | -4.23835 | 38011 ft | 459 kts | 24° |
| 2026-05-07 18:27 | 48.44363 | -4.19710 | 38006 ft | 459 kts | 20° |
| 2026-05-07 18:27 | 48.50323 | -4.16324 | 38003 ft | 458 kts | 18° |
| 2026-05-07 18:28 | 48.56330 | -4.13093 | 38004 ft | 458 kts | 17° |
| 2026-05-07 18:28 | 48.62340 | -4.09866 | 38017 ft | 458 kts | 18° |
| 2026-05-07 18:29 | 48.68343 | -4.06602 | 38012 ft | 459 kts | 18° |
| 2026-05-07 18:29 | 48.74345 | -4.03307 | 38013 ft | 459 kts | 18° |
| 2026-05-07 18:30 | 48.80354 | -4.00000 | 38013 ft | 459 kts | 18° |
| 2026-05-07 18:30 | 48.86367 | -3.96686 | 38011 ft | 460 kts | 18° |
| 2026-05-07 18:31 | 48.92380 | -3.93381 | 38005 ft | 460 kts | 18° |
| 2026-05-07 18:31 | 48.98392 | -3.90055 | 38003 ft | 460 kts | 18° |
| 2026-05-07 18:32 | 49.04356 | -3.86736 | 38007 ft | 460 kts | 18° |
| 2026-05-07 18:32 | 49.10369 | -3.83398 | 38003 ft | 460 kts | 18° |
| 2026-05-07 18:33 | 49.16385 | -3.80054 | 37998 ft | 460 kts | 18° |
| 2026-05-07 18:33 | 49.22398 | -3.76699 | 37998 ft | 460 kts | 18° |
| 2026-05-07 18:34 | 49.28403 | -3.73325 | 38010 ft | 460 kts | 18° |
| 2026-05-07 18:34 | 49.34388 | -3.69975 | 38003 ft | 460 kts | 18° |
| 2026-05-07 18:35 | 49.40398 | -3.66586 | 37995 ft | 460 kts | 18° |
| 2026-05-07 18:35 | 49.46399 | -3.63186 | 37995 ft | 460 kts | 18° |
| 2026-05-07 18:36 | 49.52408 | -3.59789 | 38001 ft | 460 kts | 18° |
| 2026-05-07 18:36 | 49.58417 | -3.56400 | 37992 ft | 460 kts | 18° |
| 2026-05-07 18:37 | 49.64429 | -3.52970 | 38001 ft | 460 kts | 18° |
| 2026-05-07 18:37 | 49.70433 | -3.49535 | 38013 ft | 461 kts | 18° |
| 2026-05-07 18:38 | 49.76410 | -3.46111 | 38013 ft | 461 kts | 19° |
| 2026-05-07 18:38 | 49.82420 | -3.42663 | 38013 ft | 461 kts | 18° |
| 2026-05-07 18:39 | 49.88435 | -3.39206 | 38016 ft | 461 kts | 19° |
| 2026-05-07 18:39 | 49.94451 | -3.35734 | 38025 ft | 461 kts | 19° |
| 2026-05-07 18:40 | 50.00466 | -3.32256 | 38021 ft | 461 kts | 19° |
| 2026-05-07 18:40 | 50.06431 | -3.28809 | 37998 ft | 460 kts | 19° |
| 2026-05-07 18:40 | 50.09430 | -3.27063 | 36969 ft | 465 kts | 19° |
| 2026-05-07 18:41 | 50.12505 | -3.25269 | 35191 ft | 478 kts | 20° |
| 2026-05-07 18:41 | 50.15638 | -3.23434 | 33557 ft | 484 kts | 20° |
| 2026-05-07 18:41 | 50.18799 | -3.21586 | 31752 ft | 486 kts | 20° |
| 2026-05-07 18:41 | 50.21974 | -3.19734 | 29912 ft | 488 kts | 20° |
| 2026-05-07 18:42 | 50.25158 | -3.17874 | 27705 ft | 490 kts | 20° |
| 2026-05-07 18:42 | 50.28357 | -3.16002 | 25484 ft | 492 kts | 20° |
| 2026-05-07 18:42 | 50.31570 | -3.14117 | 23335 ft | 493 kts | 20° |
| 2026-05-07 18:42 | 50.34772 | -3.12235 | 21287 ft | 485 kts | 20° |
| 2026-05-07 18:43 | 50.37893 | -3.10399 | 20150 ft | 477 kts | 20° |
| 2026-05-07 18:43 | 50.40975 | -3.08584 | 19885 ft | 473 kts | 20° |
| 2026-05-07 18:43 | 50.44049 | -3.06773 | 19632 ft | 470 kts | 20° |
| 2026-05-07 18:43 | 50.47072 | -3.04990 | 19389 ft | 469 kts | 20° |
| 2026-05-07 18:44 | 50.50130 | -3.03184 | 19147 ft | 470 kts | 20° |
| 2026-05-07 18:44 | 50.53191 | -3.01370 | 18857 ft | 470 kts | 20° |
| 2026-05-07 18:44 | 50.56236 | -2.99559 | 18408 ft | 467 kts | 20° |
| 2026-05-07 18:44 | 50.59261 | -2.97759 | 17580 ft | 462 kts | 20° |
| 2026-05-07 18:45 | 50.62260 | -2.95974 | 16680 ft | 458 kts | 20° |
| 2026-05-07 18:45 | 50.65221 | -2.94209 | 15898 ft | 452 kts | 20° |
| 2026-05-07 18:45 | 50.68146 | -2.92464 | 15149 ft | 447 kts | 20° |
| 2026-05-07 18:45 | 50.71040 | -2.90738 | 14393 ft | 443 kts | 20° |
| 2026-05-07 18:46 | 50.73907 | -2.89024 | 13636 ft | 438 kts | 20° |
| 2026-05-07 18:46 | 50.76744 | -2.87325 | 12856 ft | 433 kts | 20° |
| 2026-05-07 18:46 | 50.79545 | -2.85644 | 12095 ft | 428 kts | 20° |
| 2026-05-07 18:46 | 50.82312 | -2.83980 | 11370 ft | 423 kts | 20° |
| 2026-05-07 18:47 | 50.85040 | -2.82333 | 10654 ft | 418 kts | 20° |
| 2026-05-07 18:47 | 50.87740 | -2.80701 | 10027 ft | 411 kts | 20° |
| 2026-05-07 18:47 | 50.90365 | -2.79114 | 9490 ft | 400 kts | 20° |
| 2026-05-07 18:47 | 50.92957 | -2.77550 | 9241 ft | 398 kts | 20° |
| 2026-05-07 18:48 | 50.95547 | -2.75990 | 9105 ft | 399 kts | 20° |
| 2026-05-07 18:48 | 50.98140 | -2.74430 | 8975 ft | 399 kts | 20° |
| 2026-05-07 18:48 | 51.00735 | -2.72870 | 8841 ft | 399 kts | 20° |
| 2026-05-07 18:48 | 51.03328 | -2.71304 | 8711 ft | 398 kts | 20° |
| 2026-05-07 18:49 | 51.05917 | -2.69730 | 8580 ft | 398 kts | 20° |
| 2026-05-07 18:49 | 51.08505 | -2.68151 | 8184 ft | 399 kts | 21° |
| 2026-05-07 18:49 | 51.11072 | -2.66585 | 7376 ft | 394 kts | 21° |
| 2026-05-07 18:49 | 51.13579 | -2.65055 | 6865 ft | 371 kts | 21° |
| 2026-05-07 18:50 | 51.15131 | -2.64106 | 6619 ft | 350 kts | 21° |
| 2026-05-07 18:50 | 51.17305 | -2.62775 | 6404 ft | 320 kts | 21° |
| 2026-05-07 18:50 | 51.19292 | -2.61560 | 6234 ft | 293 kts | 21° |
| 2026-05-07 18:50 | 51.21150 | -2.60425 | 5725 ft | 282 kts | 21° |
| 2026-05-07 18:51 | 51.23003 | -2.59290 | 4605 ft | 291 kts | 22° |
| 2026-05-07 18:51 | 51.24938 | -2.58100 | 3282 ft | 305 kts | 22° |
| 2026-05-07 18:51 | 51.26918 | -2.56883 | 2540 ft | 298 kts | 22° |
| 2026-05-07 18:51 | 51.28762 | -2.55758 | 2441 ft | 267 kts | 22° |
| 2026-05-07 18:52 | 51.30392 | -2.54767 | 2507 ft | 236 kts | 22° |
| 2026-05-07 18:52 | 51.31864 | -2.53867 | 2516 ft | 217 kts | 22° |
| 2026-05-07 18:52 | 51.33169 | -2.53068 | 2529 ft | 189 kts | 22° |
| 2026-05-07 18:52 | 51.34343 | -2.52348 | 2527 ft | 168 kts | 22° |
| 2026-05-07 18:53 | 51.35425 | -2.51821 | 2510 ft | 159 kts | 8° |
| 2026-05-07 18:53 | 51.36520 | -2.51906 | 2517 ft | 164 kts | 346° |
| 2026-05-07 18:53 | 51.37577 | -2.52656 | 2514 ft | 171 kts | 323° |
| 2026-05-07 18:53 | 51.38393 | -2.54028 | 2511 ft | 170 kts | 298° |
| 2026-05-07 18:54 | 51.38811 | -2.55771 | 2421 ft | 167 kts | 276° |
| 2026-05-07 18:54 | 51.38812 | -2.57610 | 2251 ft | 165 kts | 263° |
| 2026-05-07 18:54 | 51.38747 | -2.59369 | 2040 ft | 152 kts | 263° |
| 2026-05-07 18:54 | 51.38685 | -2.61012 | 1844 ft | 145 kts | 263° |
| 2026-05-07 18:55 | 51.38624 | -2.62610 | 1656 ft | 143 kts | 263° |
| 2026-05-07 18:55 | 51.38563 | -2.64185 | 1457 ft | 141 kts | 263° |
| 2026-05-07 18:55 | 51.38504 | -2.65751 | 1262 ft | 140 kts | 265° |
| 2026-05-07 18:55 | 51.38444 | -2.67307 | 1063 ft | 139 kts | 266° |
| 2026-05-07 18:56 | 51.38383 | -2.68849 | 862 ft | 138 kts | 266° |
| 2026-05-07 18:56 | 51.38324 | -2.70371 | 695 ft | 136 kts | 268° |
| 2026-05-07 18:56 | 51.38272 | -2.71838 | 617 ft | 119 kts | 266° |
| 2026-05-07 18:56 | 51.38238 | -2.72719 | 630 ft | 47 kts | 267° |
| 2026-05-07 18:57 | 51.38222 | -2.73110 | 629 ft | 32 kts | 266° |
| 2026-05-07 18:57 | 51.38252 | -2.73318 | 627 ft | 17 kts | 323° |
| 2026-05-07 18:57 | 51.38361 | -2.73301 | 624 ft | 19 kts | 41° |
| 2026-05-07 18:57 | 51.38387 | -2.73170 | 608 ft | 14 kts | 85° |
| 2026-05-07 18:58 | 51.38394 | -2.73006 | 608 ft | 15 kts | 86° |
| 2026-05-07 18:58 | 51.38400 | -2.72874 | 606 ft | 10 kts | 87° |
| 2026-05-07 18:58 | 51.38404 | -2.72745 | 608 ft | 13 kts | 86° |
| 2026-05-07 18:58 | 51.38409 | -2.72625 | 610 ft | 9 kts | 86° |
| 2026-05-07 18:59 | 51.38415 | -2.72487 | 612 ft | 14 kts | 86° |
| 2026-05-07 18:59 | 51.38421 | -2.72339 | 610 ft | 14 kts | 86° |
| 2026-05-07 18:59 | 51.38427 | -2.72176 | 607 ft | 15 kts | 87° |
| 2026-05-07 18:59 | 51.38432 | -2.72036 | 605 ft | 13 kts | 87° |
| 2026-05-07 19:00 | 51.38431 | -2.71902 | 616 ft | 12 kts | 91° |
| 2026-05-07 19:00 | 51.38436 | -2.71724 | 606 ft | 18 kts | 86° |
| 2026-05-07 19:00 | 51.38443 | -2.71533 | 615 ft | 15 kts | 86° |
| 2026-05-07 19:00 | 51.38448 | -2.71397 | 613 ft | 11 kts | 86° |
| 2026-05-07 19:01 | 51.38453 | -2.71274 | 622 ft | 9 kts | 86° |
| 2026-05-07 19:01 | 51.38457 | -2.71173 | 615 ft | 9 kts | 86° |
| 2026-05-07 19:01 | 51.38461 | -2.71085 | 615 ft | 7 kts | 78° |
| 2026-05-07 19:01 | 51.38499 | -2.71075 | 612 ft | 5 kts | 357° |
| 2026-05-07 19:02 | 51.38517 | -2.71078 | 612 ft | 1 kts | 355° |
| 2026-05-07 19:02 | 51.38523 | -2.71078 | 611 ft | 0 kts | 355° |